sensor_id;sensor_type;location;lat;lon;timestamp;pressure;altitude;pressure_sealevel;temperature;humidity
63019;BME280;49105;46.046;10.760;2023-01-28T00:02:03;95432.59;;;0.25;64.54
63019;BME280;49105;46.046;10.760;2023-01-28T00:04:28;95439.22;;;0.21;65.09
63019;BME280;49105;46.046;10.760;2023-01-28T00:07:00;95433.84;;;0.16;65.10
63019;BME280;49105;46.046;10.760;2023-01-28T00:09:31;95437.47;;;0.15;65.13
63019;BME280;49105;46.046;10.760;2023-01-28T00:11:57;95441.09;;;0.14;65.21
63019;BME280;49105;46.046;10.760;2023-01-28T00:14:26;95433.22;;;0.20;65.00
63019;BME280;49105;46.046;10.760;2023-01-28T00:20:13;95444.44;;;0.21;65.18
63019;BME280;49105;46.046;10.760;2023-01-28T00:22:48;95440.19;;;0.27;65.26
63019;BME280;49105;46.046;10.760;2023-01-28T00:25:16;95449.00;;;0.26;65.43
63019;BME280;49105;46.046;10.760;2023-01-28T00:27:43;95471.69;;;0.18;65.47
63019;BME280;49105;46.046;10.760;2023-01-28T00:30:18;95465.28;;;0.14;65.59
63019;BME280;49105;46.046;10.760;2023-01-28T00:32:49;95466.94;;;0.09;65.76
63019;BME280;49105;46.046;10.760;2023-01-28T00:35:21;95467.28;;;0.12;65.58
63019;BME280;49105;46.046;10.760;2023-01-28T00:37:52;95467.25;;;0.19;65.64
63019;BME280;49105;46.046;10.760;2023-01-28T00:40:27;95464.81;;;0.24;65.19
63019;BME280;49105;46.046;10.760;2023-01-28T00:42:58;95456.03;;;0.25;65.25
63019;BME280;49105;46.046;10.760;2023-01-28T00:45:36;95446.19;;;0.27;65.29
63019;BME280;49105;46.046;10.760;2023-01-28T00:48:03;95460.66;;;0.16;64.95
63019;BME280;49105;46.046;10.760;2023-01-28T00:50:38;95457.72;;;0.13;65.84
63019;BME280;49105;46.046;10.760;2023-01-28T00:53:04;95458.28;;;0.15;65.59
63019;BME280;49105;46.046;10.760;2023-01-28T00:55:30;95454.88;;;0.14;65.69
63019;BME280;49105;46.046;10.760;2023-01-28T00:58:01;95452.06;;;0.16;66.08
63019;BME280;49105;46.046;10.760;2023-01-28T01:00:26;95456.84;;;0.19;65.73
63019;BME280;49105;46.046;10.760;2023-01-28T01:02:58;95452.25;;;0.21;65.15
63019;BME280;49105;46.046;10.760;2023-01-28T01:05:32;95448.63;;;0.22;65.62
63019;BME280;49105;46.046;10.760;2023-01-28T01:07:59;95440.81;;;0.22;65.00
63019;BME280;49105;46.046;10.760;2023-01-28T01:10:37;95444.38;;;0.28;65.50
63019;BME280;49105;46.046;10.760;2023-01-28T01:13:09;95445.91;;;0.35;64.74
63019;BME280;49105;46.046;10.760;2023-01-28T01:15:34;95445.53;;;0.32;64.78
63019;BME280;49105;46.046;10.760;2023-01-28T01:18:06;95454.59;;;0.29;65.46
63019;BME280;49105;46.046;10.760;2023-01-28T01:20:40;95439.97;;;0.28;65.82
63019;BME280;49105;46.046;10.760;2023-01-28T01:23:09;95449.38;;;0.29;65.63
63019;BME280;49105;46.046;10.760;2023-01-28T01:25:35;95451.16;;;0.29;65.43
63019;BME280;49105;46.046;10.760;2023-01-28T01:28:07;95465.41;;;0.26;65.73
63019;BME280;49105;46.046;10.760;2023-01-28T01:30:33;95459.59;;;0.24;66.07
63019;BME280;49105;46.046;10.760;2023-01-28T01:32:58;95462.22;;;0.24;65.49
63019;BME280;49105;46.046;10.760;2023-01-28T01:35:24;95463.81;;;0.25;65.87
63019;BME280;49105;46.046;10.760;2023-01-28T01:37:56;95452.94;;;0.35;65.56
63019;BME280;49105;46.046;10.760;2023-01-28T01:40:30;95455.91;;;0.38;65.71
63019;BME280;49105;46.046;10.760;2023-01-28T01:42:59;95454.31;;;0.37;65.58
63019;BME280;49105;46.046;10.760;2023-01-28T01:45:27;95462.31;;;0.36;65.60
63019;BME280;49105;46.046;10.760;2023-01-28T01:48:10;95464.63;;;0.26;65.72
63019;BME280;49105;46.046;10.760;2023-01-28T01:50:50;95459.97;;;0.28;65.43
63019;BME280;49105;46.046;10.760;2023-01-28T01:53:25;95457.19;;;0.29;65.51
63019;BME280;49105;46.046;10.760;2023-01-28T01:56:02;95459.97;;;0.28;65.63
63019;BME280;49105;46.046;10.760;2023-01-28T01:58:49;95461.56;;;0.29;65.73
63019;BME280;49105;46.046;10.760;2023-01-28T02:01:27;95466.44;;;0.25;65.92
63019;BME280;49105;46.046;10.760;2023-01-28T02:04:06;95477.44;;;0.20;65.99
63019;BME280;49105;46.046;10.760;2023-01-28T02:06:40;95476.09;;;0.18;65.83
63019;BME280;49105;46.046;10.760;2023-01-28T02:09:22;95473.75;;;0.10;66.09
63019;BME280;49105;46.046;10.760;2023-01-28T02:11:57;95466.34;;;0.07;66.50
63019;BME280;49105;46.046;10.760;2023-01-28T02:14:33;95472.56;;;0.06;66.60
63019;BME280;49105;46.046;10.760;2023-01-28T02:17:09;95470.53;;;0.08;66.31
63019;BME280;49105;46.046;10.760;2023-01-28T02:23:16;95469.63;;;0.20;65.93
63019;BME280;49105;46.046;10.760;2023-01-28T02:28:50;95464.28;;;0.15;65.96
63019;BME280;49105;46.046;10.760;2023-01-28T02:37:12;95471.72;;;0.12;66.23
63019;BME280;49105;46.046;10.760;2023-01-28T02:39:50;95478.88;;;0.16;66.43
63019;BME280;49105;46.046;10.760;2023-01-28T02:42:28;95473.47;;;0.18;66.13
63019;BME280;49105;46.046;10.760;2023-01-28T02:44:55;95471.50;;;0.13;65.89
63019;BME280;49105;46.046;10.760;2023-01-28T02:47:26;95468.13;;;0.13;65.94
63019;BME280;49105;46.046;10.760;2023-01-28T02:50:13;95465.00;;;-0.03;66.28
63019;BME280;49105;46.046;10.760;2023-01-28T03:01:09;95474.81;;;-0.05;66.96
63019;BME280;49105;46.046;10.760;2023-01-28T03:06:31;95475.00;;;0.01;66.62
63019;BME280;49105;46.046;10.760;2023-01-28T03:09:05;95482.03;;;0.00;66.62
63019;BME280;49105;46.046;10.760;2023-01-28T03:12:04;95483.00;;;-0.01;66.86
63019;BME280;49105;46.046;10.760;2023-01-28T03:14:57;95490.00;;;-0.02;66.28
63019;BME280;49105;46.046;10.760;2023-01-28T03:18:19;95486.41;;;-0.01;66.85
63019;BME280;49105;46.046;10.760;2023-01-28T03:21:24;95491.19;;;0.03;66.66
63019;BME280;49105;46.046;10.760;2023-01-28T03:24:18;95497.41;;;0.02;66.61
63019;BME280;49105;46.046;10.760;2023-01-28T03:30:03;95500.78;;;0.09;66.45
63019;BME280;49105;46.046;10.760;2023-01-28T03:32:50;95497.00;;;0.05;66.29
63019;BME280;49105;46.046;10.760;2023-01-28T03:35:34;95494.19;;;-0.01;66.39
63019;BME280;49105;46.046;10.760;2023-01-28T03:38:22;95497.03;;;-0.02;66.61
63019;BME280;49105;46.046;10.760;2023-01-28T03:40:58;95497.44;;;-0.05;66.81
63019;BME280;49105;46.046;10.760;2023-01-28T03:43:30;95502.25;;;-0.09;66.72
63019;BME280;49105;46.046;10.760;2023-01-28T03:46:04;95500.66;;;-0.10;67.07
63019;BME280;49105;46.046;10.760;2023-01-28T03:48:43;95504.28;;;-0.11;66.81
63019;BME280;49105;46.046;10.760;2023-01-28T03:51:14;95509.09;;;-0.14;67.05
63019;BME280;49105;46.046;10.760;2023-01-28T03:53:40;95509.09;;;-0.14;67.09
63019;BME280;49105;46.046;10.760;2023-01-28T03:56:07;95497.72;;;-0.20;67.12
63019;BME280;49105;46.046;10.760;2023-01-28T03:58:33;95503.50;;;-0.18;67.01
63019;BME280;49105;46.046;10.760;2023-01-28T04:01:17;95503.31;;;-0.16;67.16
63019;BME280;49105;46.046;10.760;2023-01-28T04:03:53;95492.47;;;-0.13;66.74
63019;BME280;49105;46.046;10.760;2023-01-28T04:06:30;95499.06;;;-0.11;66.59
63019;BME280;49105;46.046;10.760;2023-01-28T04:09:05;95509.47;;;-0.11;66.66
63019;BME280;49105;46.046;10.760;2023-01-28T04:11:36;95514.53;;;-0.16;66.90
63019;BME280;49105;46.046;10.760;2023-01-28T04:14:02;95516.31;;;-0.16;67.01
63019;BME280;49105;46.046;10.760;2023-01-28T04:16:36;95517.91;;;-0.15;67.18
63019;BME280;49105;46.046;10.760;2023-01-28T04:19:02;95520.13;;;-0.19;67.30
63019;BME280;49105;46.046;10.760;2023-01-28T04:21:27;95523.53;;;-0.18;67.39
63019;BME280;49105;46.046;10.760;2023-01-28T04:23:59;95526.34;;;-0.20;66.42
63019;BME280;49105;46.046;10.760;2023-01-28T04:26:35;95523.94;;;-0.21;67.15
63019;BME280;49105;46.046;10.760;2023-01-28T04:29:03;95534.16;;;-0.20;67.03
63019;BME280;49105;46.046;10.760;2023-01-28T04:31:32;95537.94;;;-0.22;66.95
63019;BME280;49105;46.046;10.760;2023-01-28T04:34:04;95545.91;;;-0.17;66.89
63019;BME280;49105;46.046;10.760;2023-01-28T04:36:39;95543.53;;;-0.12;66.63
63019;BME280;49105;46.046;10.760;2023-01-28T04:39:05;95543.88;;;-0.09;66.51
63019;BME280;49105;46.046;10.760;2023-01-28T04:41:31;95549.28;;;-0.10;66.45
63019;BME280;49105;46.046;10.760;2023-01-28T04:44:06;95554.34;;;-0.15;66.69
63019;BME280;49105;46.046;10.760;2023-01-28T04:46:32;95555.19;;;-0.28;66.66
63019;BME280;49105;46.046;10.760;2023-01-28T04:49:06;95550.19;;;-0.30;66.89
63019;BME280;49105;46.046;10.760;2023-01-28T04:51:32;95548.81;;;-0.32;67.08
63019;BME280;49105;46.046;10.760;2023-01-28T04:53:57;95549.81;;;-0.40;67.21
63019;BME280;49105;46.046;10.760;2023-01-28T04:56:25;95546.06;;;-0.51;66.99
63019;BME280;49105;46.046;10.760;2023-01-28T04:58:51;95553.06;;;-0.58;67.25
63019;BME280;49105;46.046;10.760;2023-01-28T05:01:22;95562.47;;;-0.57;67.30
63019;BME280;49105;46.046;10.760;2023-01-28T05:03:55;95560.06;;;-0.58;67.27
63019;BME280;49105;46.046;10.760;2023-01-28T05:06:20;95564.50;;;-0.65;67.36
63019;BME280;49105;46.046;10.760;2023-01-28T05:08:46;95569.53;;;-0.77;67.45
63019;BME280;49105;46.046;10.760;2023-01-28T05:11:14;95571.94;;;-0.82;67.49
63019;BME280;49105;46.046;10.760;2023-01-28T05:13:40;95578.13;;;-0.83;67.72
63019;BME280;49105;46.046;10.760;2023-01-28T05:19:26;95584.72;;;-0.87;67.61
63019;BME280;49105;46.046;10.760;2023-01-28T05:21:52;95586.53;;;-0.94;67.61
63019;BME280;49105;46.046;10.760;2023-01-28T05:24:26;95596.72;;;-1.00;67.66
63019;BME280;49105;46.046;10.760;2023-01-28T05:26:58;95601.31;;;-1.02;68.00
63019;BME280;49105;46.046;10.760;2023-01-28T05:29:23;95594.53;;;-1.03;67.91
63019;BME280;49105;46.046;10.760;2023-01-28T05:31:59;95599.91;;;-1.04;67.81
63019;BME280;49105;46.046;10.760;2023-01-28T05:34:31;95605.31;;;-1.06;67.86
63019;BME280;49105;46.046;10.760;2023-01-28T05:36:57;95610.53;;;-1.06;67.92
63019;BME280;49105;46.046;10.760;2023-01-28T05:39:31;95611.09;;;-1.04;67.67
63019;BME280;49105;46.046;10.760;2023-01-28T05:41:57;95619.31;;;-1.00;67.87
63019;BME280;49105;46.046;10.760;2023-01-28T05:44:32;95614.13;;;-1.07;67.97
63019;BME280;49105;46.046;10.760;2023-01-28T05:47:06;95613.72;;;-1.10;67.58
63019;BME280;49105;46.046;10.760;2023-01-28T05:49:41;95622.91;;;-1.08;67.55
63019;BME280;49105;46.046;10.760;2023-01-28T05:52:13;95620.50;;;-1.16;67.86
63019;BME280;49105;46.046;10.760;2023-01-28T05:54:47;95628.91;;;-1.14;68.73
63019;BME280;49105;46.046;10.760;2023-01-28T05:57:16;95629.31;;;-1.10;68.46
63019;BME280;49105;46.046;10.760;2023-01-28T05:59:53;95628.88;;;-1.07;68.04
63019;BME280;49105;46.046;10.760;2023-01-28T06:02:19;95623.69;;;-1.01;68.26
63019;BME280;49105;46.046;10.760;2023-01-28T06:04:44;95636.69;;;-0.94;68.01
63019;BME280;49105;46.046;10.760;2023-01-28T06:07:10;95628.13;;;-0.94;67.98
63019;BME280;49105;46.046;10.760;2023-01-28T06:09:46;95629.09;;;-0.95;68.01
63019;BME280;49105;46.046;10.760;2023-01-28T06:12:12;95631.28;;;-0.99;67.91
63019;BME280;49105;46.046;10.760;2023-01-28T06:14:38;95622.09;;;-1.08;67.84
63019;BME280;49105;46.046;10.760;2023-01-28T06:17:09;95634.06;;;-1.07;68.10
63019;BME280;49105;46.046;10.760;2023-01-28T06:19:35;95643.88;;;-1.09;68.01
63019;BME280;49105;46.046;10.760;2023-01-28T06:22:07;95638.69;;;-1.09;68.24
63019;BME280;49105;46.046;10.760;2023-01-28T06:24:33;95643.47;;;-1.13;67.87
63019;BME280;49105;46.046;10.760;2023-01-28T06:27:04;95654.88;;;-1.14;67.85
63019;BME280;49105;46.046;10.760;2023-01-28T06:29:38;95655.47;;;-1.18;67.83
63019;BME280;49105;46.046;10.760;2023-01-28T06:32:07;95665.25;;;-1.20;67.95
63019;BME280;49105;46.046;10.760;2023-01-28T06:34:39;95675.03;;;-1.22;68.14
63019;BME280;49105;46.046;10.760;2023-01-28T06:37:16;95674.84;;;-1.21;68.02
63019;BME280;49105;46.046;10.760;2023-01-28T06:39:54;95690.78;;;-1.24;68.29
63019;BME280;49105;46.046;10.760;2023-01-28T06:42:20;95686.81;;;-1.27;68.30
63019;BME280;49105;46.046;10.760;2023-01-28T06:44:45;95683.19;;;-1.32;68.56
63019;BME280;49105;46.046;10.760;2023-01-28T06:47:17;95685.19;;;-1.34;68.87
63019;BME280;49105;46.046;10.760;2023-01-28T06:49:48;95690.59;;;-1.29;68.46
63019;BME280;49105;46.046;10.760;2023-01-28T06:52:15;95695.19;;;-1.31;68.47
63019;BME280;49105;46.046;10.760;2023-01-28T06:58:12;95695.78;;;-1.36;68.25
63019;BME280;49105;46.046;10.760;2023-01-28T07:00:37;95706.00;;;-1.21;68.57
63019;BME280;49105;46.046;10.760;2023-01-28T07:03:04;95704.41;;;-1.22;68.00
63019;BME280;49105;46.046;10.760;2023-01-28T07:05:29;95715.97;;;-1.25;68.23
63019;BME280;49105;46.046;10.760;2023-01-28T07:07:55;95714.75;;;-1.29;68.26
63019;BME280;49105;46.046;10.760;2023-01-28T07:10:20;95715.34;;;-1.33;68.36
63019;BME280;49105;46.046;10.760;2023-01-28T07:12:46;95713.13;;;-1.36;68.30
63019;BME280;49105;46.046;10.760;2023-01-28T07:15:17;95712.34;;;-1.37;68.11
63019;BME280;49105;46.046;10.760;2023-01-28T07:17:52;95721.75;;;-1.36;68.29
63019;BME280;49105;46.046;10.760;2023-01-28T07:20:17;95714.69;;;-1.48;68.24
63019;BME280;49105;46.046;10.760;2023-01-28T07:22:43;95720.72;;;-1.48;69.07
63019;BME280;49105;46.046;10.760;2023-01-28T07:25:10;95718.50;;;-1.44;68.38
63019;BME280;49105;46.046;10.760;2023-01-28T07:27:47;95711.94;;;-1.40;68.69
63019;BME280;49105;46.046;10.760;2023-01-28T07:30:22;95720.53;;;-1.40;68.56
63019;BME280;49105;46.046;10.760;2023-01-28T07:32:55;95727.91;;;-1.37;68.66
63019;BME280;49105;46.046;10.760;2023-01-28T07:35:27;95720.13;;;-1.43;68.46
63019;BME280;49105;46.046;10.760;2023-01-28T07:37:53;95716.75;;;-1.44;68.66
63019;BME280;49105;46.046;10.760;2023-01-28T07:40:28;95731.72;;;-1.39;68.46
63019;BME280;49105;46.046;10.760;2023-01-28T07:42:54;95724.72;;;-1.32;68.69
63019;BME280;49105;46.046;10.760;2023-01-28T07:45:21;95722.56;;;-1.29;68.33
63019;BME280;49105;46.046;10.760;2023-01-28T07:47:58;95731.94;;;-1.28;68.65
63019;BME280;49105;46.046;10.760;2023-01-28T07:50:34;95727.16;;;-1.31;68.79
63019;BME280;49105;46.046;10.760;2023-01-28T07:53:09;95734.94;;;-1.31;68.66
63019;BME280;49105;46.046;10.760;2023-01-28T07:55:36;95735.94;;;-1.25;68.38
63019;BME280;49105;46.046;10.760;2023-01-28T07:58:03;95738.16;;;-1.22;68.50
63019;BME280;49105;46.046;10.760;2023-01-28T08:00:30;95742.75;;;-1.17;68.38
63019;BME280;49105;46.046;10.760;2023-01-28T08:03:01;95743.97;;;-1.13;68.27
63019;BME280;49105;46.046;10.760;2023-01-28T08:05:47;95748.56;;;-1.09;68.44
63019;BME280;49105;46.046;10.760;2023-01-28T08:08:13;95754.38;;;-1.07;68.26
63019;BME280;49105;46.046;10.760;2023-01-28T08:10:40;95751.78;;;-1.07;68.47
63019;BME280;49105;46.046;10.760;2023-01-28T08:13:16;95751.16;;;-1.09;68.08
63019;BME280;49105;46.046;10.760;2023-01-28T08:15:42;95759.97;;;-1.10;68.26
63019;BME280;49105;46.046;10.760;2023-01-28T08:18:10;95766.75;;;-1.09;68.05
63019;BME280;49105;46.046;10.760;2023-01-28T08:20:38;95756.56;;;-1.04;68.28
63019;BME280;49105;46.046;10.760;2023-01-28T08:23:17;95761.38;;;-1.01;68.26
63019;BME280;49105;46.046;10.760;2023-01-28T08:25:44;95774.38;;;-0.94;68.47
63019;BME280;49105;46.046;10.760;2023-01-28T08:28:10;95760.41;;;-0.93;68.24
63019;BME280;49105;46.046;10.760;2023-01-28T08:30:36;95765.38;;;-0.91;67.91
63019;BME280;49105;46.046;10.760;2023-01-28T08:36:24;95768.13;;;-1.13;68.86
63019;BME280;49105;46.046;10.760;2023-01-28T08:38:53;95768.75;;;-1.11;69.00
63019;BME280;49105;46.046;10.760;2023-01-28T08:41:28;95761.34;;;-1.07;68.85
63019;BME280;49105;46.046;10.760;2023-01-28T08:44:03;95766.56;;;-1.01;68.42
63019;BME280;49105;46.046;10.760;2023-01-28T08:46:43;95763.19;;;-0.94;68.74
63019;BME280;49105;46.046;10.760;2023-01-28T08:49:10;95762.78;;;-0.91;68.38
63019;BME280;49105;46.046;10.760;2023-01-28T08:51:36;95759.78;;;-0.95;68.19
63019;BME280;49105;46.046;10.760;2023-01-28T08:54:01;95759.41;;;-0.98;68.45
63019;BME280;49105;46.046;10.760;2023-01-28T08:56:39;95758.75;;;-1.07;68.59
63019;BME280;49105;46.046;10.760;2023-01-28T08:59:07;95762.34;;;-1.15;68.80
63019;BME280;49105;46.046;10.760;2023-01-28T09:01:39;95763.75;;;-1.19;69.09
63019;BME280;49105;46.046;10.760;2023-01-28T09:04:09;95766.34;;;-1.19;69.21
63019;BME280;49105;46.046;10.760;2023-01-28T09:06:41;95764.53;;;-1.18;69.21
63019;BME280;49105;46.046;10.760;2023-01-28T09:09:06;95772.50;;;-1.20;69.21
63019;BME280;49105;46.046;10.760;2023-01-28T09:11:31;95762.94;;;-1.13;68.79
63019;BME280;49105;46.046;10.760;2023-01-28T09:13:57;95770.75;;;-1.06;68.56
63019;BME280;49105;46.046;10.760;2023-01-28T09:16:23;95775.97;;;-1.00;68.71
63019;BME280;49105;46.046;10.760;2023-01-28T09:18:48;95771.19;;;-1.03;68.65
63019;BME280;49105;46.046;10.760;2023-01-28T09:21:19;95775.16;;;-1.07;68.72
63019;BME280;49105;46.046;10.760;2023-01-28T09:23:47;95756.97;;;-1.07;68.74
63019;BME280;49105;46.046;10.760;2023-01-28T09:26:13;95773.56;;;-1.01;69.02
63019;BME280;49105;46.046;10.760;2023-01-28T09:28:38;95778.00;;;-0.75;68.85
63019;BME280;49105;46.046;10.760;2023-01-28T09:31:09;95783.63;;;-0.58;68.55
63019;BME280;49105;46.046;10.760;2023-01-28T09:33:39;95778.03;;;-0.48;68.50
63019;BME280;49105;46.046;10.760;2023-01-28T09:36:06;95784.84;;;-0.34;68.34
63019;BME280;49105;46.046;10.760;2023-01-28T09:38:32;95779.44;;;-0.26;68.28
63019;BME280;49105;46.046;10.760;2023-01-28T09:41:08;95780.81;;;-0.17;68.30
63019;BME280;49105;46.046;10.760;2023-01-28T09:46:49;95780.22;;;0.01;67.82
63019;BME280;49105;46.046;10.760;2023-01-28T09:49:20;95788.81;;;0.02;67.84
63019;BME280;49105;46.046;10.760;2023-01-28T09:51:51;95784.81;;;0.06;68.31
63019;BME280;49105;46.046;10.760;2023-01-28T09:57:41;95786.94;;;0.35;68.25
63019;BME280;49105;46.046;10.760;2023-01-28T10:00:18;95783.31;;;0.43;67.43
63019;BME280;49105;46.046;10.760;2023-01-28T10:03:21;95777.09;;;0.51;67.91
63019;BME280;49105;46.046;10.760;2023-01-28T10:18:34;95765.75;;;0.83;66.87
63019;BME280;49105;46.046;10.760;2023-01-28T10:21:21;95760.28;;;0.91;66.61
63019;BME280;49105;46.046;10.760;2023-01-28T10:26:40;95751.19;;;1.07;65.64
63019;BME280;49105;46.046;10.760;2023-01-28T10:29:21;95748.69;;;1.19;65.57
63019;BME280;49105;46.046;10.760;2023-01-28T10:31:58;95753.38;;;1.35;65.84
63019;BME280;49105;46.046;10.760;2023-01-28T10:34:29;95743.88;;;1.47;65.03
63019;BME280;49105;46.046;10.760;2023-01-28T10:37:04;95740.03;;;1.50;64.86
63019;BME280;49105;46.046;10.760;2023-01-28T10:39:39;95746.84;;;1.51;64.72
63019;BME280;49105;46.046;10.760;2023-01-28T10:45:41;95735.63;;;1.51;64.38
63019;BME280;49105;46.046;10.760;2023-01-28T10:47:57;95728.72;;;1.63;64.35
63019;BME280;49105;46.046;10.760;2023-01-28T10:50:30;95723.38;;;1.76;64.54
63019;BME280;49105;46.046;10.760;2023-01-28T10:53:01;95718.47;;;1.86;64.15
63019;BME280;49105;46.046;10.760;2023-01-28T10:55:55;95717.97;;;1.96;63.87
63019;BME280;49105;46.046;10.760;2023-01-28T10:58:33;95709.06;;;2.04;63.57
63019;BME280;49105;46.046;10.760;2023-01-28T11:01:09;95709.34;;;2.14;63.30
63019;BME280;49105;46.046;10.760;2023-01-28T11:03:39;95697.38;;;2.24;63.50
63019;BME280;49105;46.046;10.760;2023-01-28T11:06:34;95697.88;;;2.33;63.04
63019;BME280;49105;46.046;10.760;2023-01-28T11:09:23;95686.13;;;2.42;62.96
63019;BME280;49105;46.046;10.760;2023-01-28T11:11:55;95686.84;;;2.49;62.62
63019;BME280;49105;46.046;10.760;2023-01-28T11:14:29;95683.91;;;2.58;62.45
63019;BME280;49105;46.046;10.760;2023-01-28T11:17:17;95673.59;;;2.63;61.93
63019;BME280;49105;46.046;10.760;2023-01-28T11:19:43;95673.28;;;2.71;62.03
63019;BME280;49105;46.046;10.760;2023-01-28T11:22:32;95672.53;;;2.82;61.94
63019;BME280;49105;46.046;10.760;2023-01-28T11:25:34;95653.69;;;2.92;61.46
63019;BME280;49105;46.046;10.760;2023-01-28T11:28:24;95658.41;;;3.02;61.38
63019;BME280;49105;46.046;10.760;2023-01-28T11:30:53;95646.91;;;3.03;60.72
63019;BME280;49105;46.046;10.760;2023-01-28T11:38:33;95646.16;;;3.26;60.18
63019;BME280;49105;46.046;10.760;2023-01-28T11:40:58;95643.41;;;3.32;60.29
63019;BME280;49105;46.046;10.760;2023-01-28T11:43:34;95641.38;;;3.34;60.15
63019;BME280;49105;46.046;10.760;2023-01-28T11:49:00;95630.94;;;3.34;59.94
63019;BME280;49105;46.046;10.760;2023-01-28T11:57:23;95614.09;;;3.42;59.87
63019;BME280;49105;46.046;10.760;2023-01-28T12:00:21;95615.09;;;3.53;59.64
63019;BME280;49105;46.046;10.760;2023-01-28T12:03:00;95612.72;;;3.63;59.31
63019;BME280;49105;46.046;10.760;2023-01-28T12:08:08;95602.91;;;3.82;58.87
63019;BME280;49105;46.046;10.760;2023-01-28T12:30:48;95585.31;;;4.06;56.76
63019;BME280;49105;46.046;10.760;2023-01-28T12:36:36;95584.53;;;3.93;56.00
63019;BME280;49105;46.046;10.760;2023-01-28T12:44:53;95571.72;;;4.20;55.99
63019;BME280;49105;46.046;10.760;2023-01-28T12:47:27;95568.16;;;4.27;56.02
63019;BME280;49105;46.046;10.760;2023-01-28T12:50:04;95576.00;;;4.27;55.90
63019;BME280;49105;46.046;10.760;2023-01-28T12:52:43;95567.13;;;4.28;55.86
63019;BME280;49105;46.046;10.760;2023-01-28T12:55:17;95567.44;;;4.31;55.65
63019;BME280;49105;46.046;10.760;2023-01-28T12:57:47;95564.63;;;4.33;54.60
63019;BME280;49105;46.046;10.760;2023-01-28T13:00:32;95561.09;;;4.27;54.23
63019;BME280;49105;46.046;10.760;2023-01-28T13:05:40;95562.38;;;4.25;54.09
63019;BME280;49105;46.046;10.760;2023-01-28T13:08:23;95556.88;;;4.26;54.36
63019;BME280;49105;46.046;10.760;2023-01-28T13:10:49;95554.84;;;4.28;54.45
63019;BME280;49105;46.046;10.760;2023-01-28T13:13:36;95558.72;;;4.26;54.43
63019;BME280;49105;46.046;10.760;2023-01-28T13:16:03;95561.56;;;4.24;54.75
63019;BME280;49105;46.046;10.760;2023-01-28T13:18:42;95555.84;;;4.27;54.48
63019;BME280;49105;46.046;10.760;2023-01-28T13:21:15;95555.63;;;4.29;54.74
63019;BME280;49105;46.046;10.760;2023-01-28T13:23:46;95556.63;;;4.28;54.67
63019;BME280;49105;46.046;10.760;2023-01-28T13:28:47;95552.75;;;4.30;54.62
63019;BME280;49105;46.046;10.760;2023-01-28T13:31:36;95545.41;;;4.44;54.17
63019;BME280;49105;46.046;10.760;2023-01-28T13:34:03;95551.38;;;4.56;53.78
63019;BME280;49105;46.046;10.760;2023-01-28T13:36:32;95547.34;;;4.65;53.53
63019;BME280;49105;46.046;10.760;2023-01-28T13:39:04;95551.56;;;4.66;52.72
63019;BME280;49105;46.046;10.760;2023-01-28T13:44:29;95555.84;;;4.72;52.07
63019;BME280;49105;46.046;10.760;2023-01-28T13:49:48;95554.66;;;4.80;51.65
63019;BME280;49105;46.046;10.760;2023-01-28T13:52:28;95555.94;;;4.78;51.40
63019;BME280;49105;46.046;10.760;2023-01-28T13:55:03;95558.78;;;4.76;50.69
63019;BME280;49105;46.046;10.760;2023-01-28T14:05:57;95566.97;;;4.63;45.24
63019;BME280;49105;46.046;10.760;2023-01-28T14:16:41;95573.38;;;4.55;44.25
63019;BME280;49105;46.046;10.760;2023-01-28T14:19:11;95575.47;;;4.53;43.78
63019;BME280;49105;46.046;10.760;2023-01-28T14:21:38;95581.97;;;4.51;44.25
63019;BME280;49105;46.046;10.760;2023-01-28T14:24:05;95585.16;;;4.53;44.58
63019;BME280;49105;46.046;10.760;2023-01-28T14:31:37;95583.06;;;4.55;43.13
63019;BME280;49105;46.046;10.760;2023-01-28T14:36:43;95589.09;;;4.55;43.63
63019;BME280;49105;46.046;10.760;2023-01-28T14:39:31;95592.78;;;4.54;43.57
63019;BME280;49105;46.046;10.760;2023-01-28T14:42:01;95589.56;;;4.52;43.81
63019;BME280;49105;46.046;10.760;2023-01-28T14:44:31;95604.75;;;4.50;44.13
63019;BME280;49105;46.046;10.760;2023-01-28T14:47:14;95610.25;;;4.48;44.31
63019;BME280;49105;46.046;10.760;2023-01-28T14:58:15;95616.41;;;4.42;45.86
63019;BME280;49105;46.046;10.760;2023-01-28T15:00:58;95621.31;;;4.39;46.14
63019;BME280;49105;46.046;10.760;2023-01-28T15:03:26;95622.09;;;4.39;46.61
63019;BME280;49105;46.046;10.760;2023-01-28T15:06:22;95621.09;;;4.40;46.13
63019;BME280;49105;46.046;10.760;2023-01-28T15:09:06;95620.50;;;4.38;46.25
63019;BME280;49105;46.046;10.760;2023-01-28T15:11:37;95626.69;;;4.32;46.30
63019;BME280;49105;46.046;10.760;2023-01-28T15:14:28;95616.69;;;4.29;46.49
63019;BME280;49105;46.046;10.760;2023-01-28T15:16:54;95625.56;;;4.28;45.87
63019;BME280;49105;46.046;10.760;2023-01-28T15:19:32;95633.44;;;4.28;46.04
63019;BME280;49105;46.046;10.760;2023-01-28T15:22:01;95632.84;;;4.26;46.29
63019;BME280;49105;46.046;10.760;2023-01-28T15:24:33;95632.31;;;4.24;46.01
63019;BME280;49105;46.046;10.760;2023-01-28T15:26:59;95633.31;;;4.23;46.23
63019;BME280;49105;46.046;10.760;2023-01-28T15:29:36;95643.47;;;4.19;46.24
63019;BME280;49105;46.046;10.760;2023-01-28T15:32:04;95646.78;;;4.15;46.16
63019;BME280;49105;46.046;10.760;2023-01-28T15:34:44;95652.38;;;4.07;46.65
63019;BME280;49105;46.046;10.760;2023-01-28T15:37:10;95656.13;;;3.99;46.74
63019;BME280;49105;46.046;10.760;2023-01-28T15:39:37;95649.66;;;3.90;46.99
63019;BME280;49105;46.046;10.760;2023-01-28T15:42:06;95654.47;;;3.81;47.32
63019;BME280;49105;46.046;10.760;2023-01-28T15:44:36;95659.81;;;3.75;47.86
63019;BME280;49105;46.046;10.760;2023-01-28T15:47:29;95661.97;;;3.66;47.95
63019;BME280;49105;46.046;10.760;2023-01-28T15:50:04;95666.31;;;3.60;48.10
63019;BME280;49105;46.046;10.760;2023-01-28T15:52:41;95678.50;;;3.55;48.03
63019;BME280;49105;46.046;10.760;2023-01-28T15:55:29;95674.94;;;3.49;48.48
63019;BME280;49105;46.046;10.760;2023-01-28T15:57:55;95681.66;;;3.45;48.60
63019;BME280;49105;46.046;10.760;2023-01-28T16:00:22;95688.16;;;3.42;48.94